Terminal Aerodrome Forecast
Issued by NWS

Home | Current Version | Previous Version | Text Only | Print | Product List | Glossary On
Versions: 1 2 3 4 5 6 7 8 9 10 11 12 13
546
FTUS41 KPBZ 242336
TAFFKL
TAF
KFKL 242336Z 2500/2524 13012G20KT P6SM VCSH BKN140
     FM250400 12010KT P6SM BKN080
     FM251000 11008KT P6SM VCSH BKN025
     FM251300 11009KT P6SM OVC045
      AMD LTD TO CLD VIS AND WIND=

USA.gov is the U.S. government's official web portal to all federal, state and local government web resources and services.